Time;durP1;ratioP1;P1;durP2;ratioP2;P2;SDS_P1;SDS_P2;PMS_P1;PMS_P2;Temp;Humidity;BMP_temperature;BMP_pressure;BME280_temperature;BME280_humidity;BME280_pressure;Samples;Min_cycle;Max_cycle;Signal;HPM_P1;HPM_P2
2022/11/22 00:01:33;;;;;;;34.97;20.53;;;3.70;99.90;;;;;;4987004;28;20497;-76
2022/11/22 00:03:59;;;;;;;35.17;20.70;;;4.10;99.90;;;;;;5006171;28;20468;-76
2022/11/22 00:06:24;;;;;;;30.23;19.60;;;3.80;99.90;;;;;;5005357;28;20413;-76
2022/11/22 00:08:50;;;;;;;31.17;19.60;;;3.70;99.90;;;;;;4988621;28;20491;-76
2022/11/22 00:11:16;;;;;;;29.63;19.33;;;3.80;99.90;;;;;;5005473;28;20500;-76
2022/11/22 00:13:41;;;;;;;31.90;20.10;;;3.90;99.90;;;;;;5005760;28;20421;-75
2022/11/22 00:16:07;;;;;;;30.37;19.37;;;4.10;99.90;;;;;;5009335;28;20499;-76
2022/11/22 00:18:33;;;;;;;30.95;19.40;;;3.80;99.90;;;;;;5007970;28;20417;-76
2022/11/22 00:21:04;;;;;;;34.63;20.17;;;3.90;99.90;;;;;;5008758;28;20401;-77
2022/11/22 00:23:30;;;;;;;31.70;19.88;;;4.00;99.90;;;;;;5008799;28;20424;-76
2022/11/22 00:25:56;;;;;;;31.08;19.83;;;4.00;99.90;;;;;;5008718;28;20459;-76
2022/11/22 00:28:22;;;;;;;30.52;18.50;;;3.80;99.90;;;;;;5008443;28;20416;-77
2022/11/22 00:30:47;;;;;;;27.17;17.48;;;3.80;99.90;;;;;;4990512;28;20433;-76
2022/11/22 00:33:13;;;;;;;27.40;17.38;;;3.70;99.90;;;;;;4988663;28;20405;-75
2022/11/22 00:35:38;;;;;;;26.38;17.60;;;4.00;99.90;;;;;;4987595;28;20419;-76
2022/11/22 00:38:04;;;;;;;26.50;16.60;;;4.10;99.90;;;;;;4989646;28;20433;-76
2022/11/22 00:40:30;;;;;;;23.20;16.50;;;4.20;99.90;;;;;;4988238;28;20408;-75
2022/11/22 00:42:55;;;;;;;25.83;16.67;;;3.80;99.90;;;;;;4989095;28;20505;-75
2022/11/22 00:45:21;;;;;;;29.20;18.70;;;3.70;99.90;;;;;;4971735;28;20418;-75
2022/11/22 00:47:47;;;;;;;26.13;15.60;;;4.10;99.90;;;;;;4989069;28;20398;-77
2022/11/22 00:50:12;;;;;;;23.08;16.08;;;4.10;99.90;;;;;;4989613;28;20411;-76
2022/11/22 00:52:38;;;;;;;24.80;16.27;;;3.90;99.90;;;;;;4989241;28;20394;-75
2022/11/22 00:55:04;;;;;;;24.88;15.98;;;4.10;99.90;;;;;;4988983;28;20414;-78
2022/11/22 00:57:30;;;;;;;25.70;15.75;;;3.80;99.90;;;;;;4989311;28;20414;-75
2022/11/22 00:59:55;;;;;;;22.53;16.23;;;3.70;99.90;;;;;;4988973;28;20414;-77
2022/11/22 01:02:21;;;;;;;25.83;16.63;;;4.00;99.90;;;;;;4954700;28;20408;-75
2022/11/22 01:04:47;;;;;;;24.40;15.70;;;4.10;99.90;;;;;;4989271;28;20440;-76
2022/11/22 01:07:12;;;;;;;21.80;15.27;;;4.10;99.90;;;;;;4989284;28;20809;-74
2022/11/22 01:09:38;;;;;;;21.00;15.30;;;4.10;99.90;;;;;;4988034;28;20460;-75
2022/11/22 01:12:04;;;;;;;22.73;15.10;;;3.90;99.90;;;;;;4971495;28;20410;-76
2022/11/22 01:14:30;;;;;;;25.52;15.88;;;3.80;99.90;;;;;;4988226;28;20410;-76
2022/11/22 01:16:56;;;;;;;23.13;15.10;;;4.00;99.90;;;;;;4987783;28;20497;-74
2022/11/22 01:19:21;;;;;;;24.30;16.42;;;3.90;99.90;;;;;;4988719;28;20422;-76
2022/11/22 01:21:47;;;;;;;23.17;15.73;;;4.10;99.90;;;;;;4988853;28;20469;-78
2022/11/22 01:24:12;;;;;;;21.92;15.40;;;3.90;99.90;;;;;;4971252;28;20442;-76
2022/11/22 01:26:38;;;;;;;21.40;15.32;;;4.00;99.90;;;;;;4993088;28;20504;-75
2022/11/22 01:29:04;;;;;;;23.25;14.85;;;4.10;99.90;;;;;;4991131;28;20409;-74
2022/11/22 01:31:30;;;;;;;24.20;15.95;;;4.00;99.90;;;;;;5006548;28;20397;-76
2022/11/22 01:33:57;;;;;;;26.60;16.23;;;3.90;99.90;;;;;;5008109;28;20427;-77
2022/11/22 01:36:23;;;;;;;23.10;16.17;;;4.00;99.90;;;;;;5007584;28;20759;-77
2022/11/22 01:38:49;;;;;;;23.30;15.25;;;3.90;99.90;;;;;;5008157;28;20467;-75
2022/11/22 01:41:15;;;;;;;25.50;16.03;;;3.90;99.90;;;;;;5008520;28;20496;-77
2022/11/22 01:43:41;;;;;;;22.50;15.20;;;4.00;99.90;;;;;;5007488;28;20511;-77
2022/11/22 01:46:15;;;;;;;21.52;13.88;;;4.00;99.90;;;;;;5007655;28;20507;-75
2022/11/22 01:48:51;;;;;;;21.13;14.77;;;3.90;99.90;;;;;;4989730;28;20408;-77
2022/11/22 01:51:29;;;;;;;24.63;16.42;;;3.70;99.90;;;;;;5007777;28;20409;-75
2022/11/22 01:53:59;;;;;;;25.83;17.38;;;4.10;99.90;;;;;;5007113;28;20784;-75
2022/11/22 01:56:27;;;;;;;22.08;16.33;;;3.80;99.90;;;;;;5003485;28;20438;-75
2022/11/22 01:58:58;;;;;;;22.77;16.38;;;4.10;99.90;;;;;;4987117;28;20494;-75
2022/11/22 02:01:24;;;;;;;24.52;17.75;;;4.00;99.90;;;;;;4987319;28;20762;-77
2022/11/22 02:03:52;;;;;;;25.60;17.83;;;4.00;99.90;;;;;;4987843;28;20442;-77
2022/11/22 02:06:19;;;;;;;27.75;18.17;;;4.10;99.90;;;;;;4987549;28;20415;-77
2022/11/22 02:09:04;;;;;;;26.30;17.75;;;3.80;99.90;;;;;;4987230;28;20418;-75
2022/11/22 02:11:30;;;;;;;24.95;16.88;;;3.90;99.90;;;;;;4986892;28;20406;-76
2022/11/22 02:13:57;;;;;;;27.27;18.63;;;4.00;99.90;;;;;;4988077;28;20461;-75
2022/11/22 02:16:23;;;;;;;32.85;19.73;;;3.90;99.90;;;;;;4986856;28;20442;-75
2022/11/22 02:18:48;;;;;;;25.75;17.42;;;3.80;99.90;;;;;;4987138;28;20417;-77
2022/11/22 02:21:14;;;;;;;27.38;17.92;;;3.80;99.90;;;;;;4970677;28;20877;-76
2022/11/22 02:23:54;;;;;;;30.05;18.58;;;3.60;99.90;;;;;;4969420;28;20492;-75
2022/11/22 02:26:23;;;;;;;25.20;17.20;;;3.60;99.90;;;;;;4987401;28;20468;-76
2022/11/22 02:28:50;;;;;;;25.25;17.38;;;3.60;99.90;;;;;;4997292;28;20420;-76
2022/11/22 02:31:40;;;;;;;30.17;18.30;;;3.80;99.90;;;;;;5005873;28;20454;-77
2022/11/22 02:34:05;;;;;;;27.83;18.08;;;3.50;99.90;;;;;;5006788;28;20416;-75
2022/11/22 02:36:37;;;;;;;23.08;17.00;;;3.90;99.90;;;;;;5005378;28;20401;-76
2022/11/22 02:39:03;;;;;;;25.48;17.55;;;3.90;99.90;;;;;;5006961;28;20555;-76
2022/11/22 02:41:28;;;;;;;27.67;17.83;;;3.80;99.90;;;;;;5006645;28;20448;-75
2022/11/22 02:43:54;;;;;;;25.55;17.58;;;3.90;99.90;;;;;;5006976;28;20468;-76
2022/11/22 02:46:21;;;;;;;25.58;17.75;;;3.80;99.90;;;;;;5005033;28;20416;-78
2022/11/22 02:48:48;;;;;;;24.08;17.83;;;4.00;99.90;;;;;;5006484;28;20410;-76
2022/11/22 02:51:15;;;;;;;27.00;16.77;;;3.70;99.90;;;;;;5006335;28;20405;-75
2022/11/22 02:53:42;;;;;;;28.10;19.55;;;3.60;99.90;;;;;;5004174;28;20465;-76
2022/11/22 02:56:08;;;;;;;27.53;18.87;;;4.00;99.90;;;;;;4989247;28;20438;-77
2022/11/22 02:58:33;;;;;;;26.10;18.70;;;4.10;99.90;;;;;;4987507;28;20530;-76
2022/11/22 03:00:59;;;;;;;25.40;17.97;;;3.90;99.90;;;;;;4985848;28;20398;-75
2022/11/22 03:03:25;;;;;;;25.90;16.65;;;3.80;99.90;;;;;;4968834;28;20801;-76
2022/11/22 03:05:51;;;;;;;27.50;17.85;;;4.00;99.90;;;;;;4986884;28;20414;-76
2022/11/22 03:08:16;;;;;;;24.48;16.77;;;4.10;99.90;;;;;;4987773;28;20425;-75
2022/11/22 03:10:42;;;;;;;25.77;17.80;;;4.10;99.90;;;;;;4986955;28;20413;-76
2022/11/22 03:13:07;;;;;;;30.88;18.65;;;4.10;99.90;;;;;;4987493;28;20476;-75
2022/11/22 03:15:33;;;;;;;25.10;18.23;;;4.00;99.90;;;;;;4986483;28;20422;-77
2022/11/22 03:18:00;;;;;;;28.27;18.55;;;3.80;99.90;;;;;;4969033;28;20415;-76
2022/11/22 03:20:27;;;;;;;27.20;18.25;;;4.20;99.90;;;;;;4986493;28;20429;-77
2022/11/22 03:22:52;;;;;;;26.65;18.08;;;3.80;99.90;;;;;;4993213;28;20420;-75
2022/11/22 03:25:18;;;;;;;26.05;18.05;;;4.20;99.90;;;;;;5005573;28;20903;-75
2022/11/22 03:27:44;;;;;;;27.13;17.88;;;4.00;99.90;;;;;;5005980;28;20403;-76
2022/11/22 03:30:10;;;;;;;26.37;18.27;;;3.90;99.90;;;;;;5005985;28;20962;-76
2022/11/22 03:32:36;;;;;;;26.67;18.30;;;4.20;99.90;;;;;;5004450;28;20435;-74
2022/11/22 03:35:02;;;;;;;24.05;17.08;;;4.30;99.90;;;;;;5004556;28;20421;-76
2022/11/22 03:37:27;;;;;;;29.15;18.40;;;4.30;99.90;;;;;;5006874;28;20752;-75
2022/11/22 03:39:53;;;;;;;26.65;17.90;;;4.20;99.90;;;;;;5006938;28;20393;-76
2022/11/22 03:42:19;;;;;;;22.15;17.42;;;4.10;99.90;;;;;;4988824;28;20860;-77
2022/11/22 03:44:44;;;;;;;29.73;18.05;;;4.20;99.90;;;;;;5006194;28;20907;-76
2022/11/22 03:47:10;;;;;;;25.70;17.80;;;4.10;99.90;;;;;;5005568;28;20409;-77
2022/11/22 03:49:35;;;;;;;28.35;19.23;;;4.10;99.90;;;;;;5010284;28;20597;-75
2022/11/22 03:52:01;;;;;;;26.67;18.05;;;4.10;99.90;;;;;;5009954;28;20448;-75
2022/11/22 03:54:27;;;;;;;26.75;17.73;;;3.90;99.90;;;;;;4991374;28;20422;-75
2022/11/22 03:56:52;;;;;;;25.25;18.00;;;4.40;99.90;;;;;;4991024;28;20413;-77
2022/11/22 03:59:18;;;;;;;26.73;17.83;;;4.10;99.90;;;;;;4990362;28;20408;-76
2022/11/22 04:01:44;;;;;;;27.63;18.55;;;4.10;99.90;;;;;;4989975;28;20956;-76
2022/11/22 04:04:10;;;;;;;28.65;18.90;;;4.40;99.90;;;;;;4990073;28;20466;-78
2022/11/22 04:06:35;;;;;;;29.85;17.80;;;4.00;99.90;;;;;;4990486;28;20414;-75
2022/11/22 04:09:01;;;;;;;27.05;18.40;;;3.90;99.90;;;;;;4989595;28;20418;-75
2022/11/22 04:11:27;;;;;;;27.75;18.40;;;3.90;99.90;;;;;;4989608;28;20984;-75
2022/11/22 04:16:37;;;;;;;29.73;20.47;;;4.50;99.90;;;;;;4989289;28;20418;-74
2022/11/22 04:19:02;;;;;;;29.13;19.13;;;4.00;99.90;;;;;;4989249;28;20418;-75
2022/11/22 04:21:34;;;;;;;29.30;18.92;;;4.10;99.90;;;;;;4989621;28;20718;-76
2022/11/22 04:26:47;;;;;;;29.33;20.30;;;4.50;99.90;;;;;;5009106;28;20466;-76
2022/11/22 04:29:14;;;;;;;27.85;18.48;;;4.10;99.90;;;;;;5009477;28;20990;-75
2022/11/22 04:34:24;;;;;;;27.17;18.98;;;4.20;99.90;;;;;;5008857;28;20428;-77
2022/11/22 04:36:49;;;;;;;35.55;19.50;;;4.40;99.90;;;;;;5009364;28;20401;-76
2022/11/22 04:39:15;;;;;;;31.42;19.80;;;4.40;99.90;;;;;;5009287;28;20806;-76
2022/11/22 04:41:40;;;;;;;29.85;19.15;;;4.30;99.90;;;;;;4991430;28;20416;-77
2022/11/22 04:46:52;;;;;;;26.50;17.10;;;4.60;99.90;;;;;;4993719;28;20413;-76
2022/11/22 04:49:18;;;;;;;23.13;18.52;;;4.30;99.90;;;;;;4999649;28;20433;-76
2022/11/22 04:54:28;;;;;;;30.65;18.38;;;4.30;99.90;;;;;;4988102;28;20853;-76
2022/11/22 04:56:53;;;;;;;28.38;18.73;;;4.20;99.90;;;;;;4989143;28;20442;-75
2022/11/22 04:59:19;;;;;;;26.70;18.55;;;4.80;99.90;;;;;;4988338;28;20413;-75
2022/11/22 05:01:45;;;;;;;27.45;17.83;;;4.50;99.90;;;;;;4988502;28;20419;-78
2022/11/22 05:04:10;;;;;;;25.45;18.27;;;4.40;99.90;;;;;;4989124;28;20883;-76
2022/11/22 05:06:36;;;;;;;27.65;19.30;;;4.80;99.90;;;;;;4988719;28;20415;-75
2022/11/22 05:09:02;;;;;;;31.95;19.17;;;4.50;99.90;;;;;;4989614;28;20469;-75
2022/11/22 05:11:28;;;;;;;26.90;17.83;;;4.50;99.90;;;;;;4989336;28;20434;-76
2022/11/22 05:13:53;;;;;;;30.70;18.60;;;4.40;99.90;;;;;;4989372;28;20457;-76
2022/11/22 05:16:19;;;;;;;28.33;17.87;;;4.40;99.90;;;;;;4988398;28;20936;-76
2022/11/22 05:18:57;;;;;;;26.90;18.87;;;4.40;99.90;;;;;;5002471;28;20832;-75
2022/11/22 05:21:25;;;;;;;25.17;18.02;;;4.40;99.90;;;;;;4989000;28;20460;-76
2022/11/22 05:23:53;;;;;;;27.40;18.33;;;4.40;99.90;;;;;;4989210;28;20426;-77
2022/11/22 05:26:26;;;;;;;26.88;18.55;;;4.70;99.90;;;;;;4971196;28;20506;-75
2022/11/22 05:28:52;;;;;;;29.02;20.30;;;4.50;99.90;;;;;;4988604;28;20413;-76
2022/11/22 05:31:23;;;;;;;28.38;19.60;;;4.90;99.90;;;;;;4988976;28;20414;-76
2022/11/22 05:33:51;;;;;;;29.70;18.70;;;4.70;99.90;;;;;;4989589;28;20422;-76
2022/11/22 05:36:17;;;;;;;26.65;17.65;;;4.90;99.90;;;;;;4989104;28;20417;-75
2022/11/22 05:38:43;;;;;;;26.77;18.80;;;4.60;99.90;;;;;;4989091;28;20402;-76
2022/11/22 05:41:11;;;;;;;28.05;17.48;;;4.80;99.90;;;;;;4989014;28;20433;-76
2022/11/22 05:43:37;;;;;;;31.15;18.13;;;5.00;99.90;;;;;;4987854;28;20422;-77
2022/11/22 05:46:09;;;;;;;26.13;18.73;;;5.10;99.90;;;;;;4987731;28;20418;-76
2022/11/22 05:48:37;;;;;;;26.77;17.63;;;4.80;99.90;;;;;;4988389;28;20801;-76
2022/11/22 05:51:05;;;;;;;28.88;18.33;;;4.70;99.90;;;;;;4989394;28;20422;-76
2022/11/22 05:53:31;;;;;;;29.05;19.02;;;4.90;99.90;;;;;;4988623;28;20430;-76
2022/11/22 05:55:56;;;;;;;28.47;18.30;;;4.90;99.90;;;;;;4988359;28;20506;-76
2022/11/22 05:58:22;;;;;;;23.83;18.17;;;5.20;99.90;;;;;;4988087;28;20850;-76
2022/11/22 06:00:47;;;;;;;24.90;17.47;;;4.90;99.90;;;;;;4970727;28;20828;-76
2022/11/22 06:03:13;;;;;;;23.67;15.67;;;5.00;99.90;;;;;;4988883;28;20419;-75
2022/11/22 06:05:39;;;;;;;28.93;17.27;;;5.20;99.90;;;;;;4988235;28;20922;-76
2022/11/22 06:08:04;;;;;;;24.73;15.90;;;5.30;99.90;;;;;;4988086;28;20402;-76
2022/11/22 06:10:33;;;;;;;30.73;17.53;;;5.30;99.90;;;;;;4988407;28;20565;-76
2022/11/22 06:12:58;;;;;;;23.58;15.48;;;5.00;99.90;;;;;;4970584;28;20405;-76
2022/11/22 06:15:24;;;;;;;23.75;15.23;;;5.00;99.90;;;;;;4966902;28;20783;-75
2022/11/22 06:17:50;;;;;;;24.45;15.50;;;5.00;99.90;;;;;;4968284;28;20428;-76
2022/11/22 06:20:16;;;;;;;24.10;15.75;;;5.30;99.90;;;;;;4967543;28;20424;-75
2022/11/22 06:22:41;;;;;;;23.02;14.40;;;5.00;99.90;;;;;;4968245;28;20419;-76
2022/11/22 06:25:08;;;;;;;28.33;15.15;;;5.20;99.90;;;;;;4967950;28;20795;-75
2022/11/22 06:27:33;;;;;;;23.23;15.02;;;5.20;99.90;;;;;;4968102;28;20404;-76
2022/11/22 06:29:59;;;;;;;25.15;14.35;;;5.20;99.90;;;;;;4966526;28;20423;-74
2022/11/22 06:32:24;;;;;;;21.23;13.90;;;5.20;99.90;;;;;;4966319;28;20483;-74
2022/11/22 06:34:50;;;;;;;21.40;14.07;;;5.50;99.90;;;;;;4968068;28;20819;-76
2022/11/22 06:37:16;;;;;;;23.53;14.10;;;5.50;99.90;;;;;;4966807;28;20505;-75
2022/11/22 06:39:41;;;;;;;25.60;14.50;;;5.20;99.90;;;;;;4967079;28;20471;-74
2022/11/22 06:42:07;;;;;;;24.63;14.10;;;5.60;99.90;;;;;;4967521;28;20507;-75
2022/11/22 06:44:33;;;;;;;20.87;12.90;;;5.60;99.90;;;;;;4967654;28;20776;-75
2022/11/22 06:46:59;;;;;;;21.73;12.80;;;5.50;99.90;;;;;;4965730;28;20904;-78
2022/11/22 06:49:24;;;;;;;22.50;12.40;;;5.30;99.90;;;;;;4950468;28;20424;-75
2022/11/22 06:51:50;;;;;;;22.13;13.13;;;5.70;99.90;;;;;;4982055;28;20408;-74
2022/11/22 06:54:16;;;;;;;22.10;12.63;;;5.50;99.90;;;;;;4968288;28;20462;-76
2022/11/22 06:56:41;;;;;;;26.83;12.68;;;5.30;99.90;;;;;;4967261;28;20436;-76
2022/11/22 06:59:08;;;;;;;21.63;12.18;;;5.80;99.90;;;;;;4967489;28;20481;-76
2022/11/22 07:01:36;;;;;;;21.92;11.57;;;5.40;99.90;;;;;;4966575;28;20412;-76
2022/11/22 07:04:02;;;;;;;20.08;11.45;;;5.60;99.90;;;;;;4967491;28;20471;-76
2022/11/22 07:06:33;;;;;;;19.52;10.63;;;5.20;99.90;;;;;;4967109;28;20415;-78
2022/11/22 07:09:01;;;;;;;23.17;10.70;;;5.40;99.90;;;;;;4967210;28;20408;-76
2022/11/22 07:11:28;;;;;;;21.60;11.00;;;5.40;99.90;;;;;;4966683;28;20423;-77
2022/11/22 07:13:56;;;;;;;17.73;10.10;;;5.10;99.90;;;;;;4971023;28;20509;-74
2022/11/22 07:16:22;;;;;;;19.10;10.30;;;5.10;99.90;;;;;;4985408;28;20779;-76
2022/11/22 07:18:48;;;;;;;20.00;10.60;;;5.30;99.90;;;;;;4995516;28;20428;-78
2022/11/22 07:21:17;;;;;;;19.42;10.38;;;5.10;99.90;;;;;;5005718;28;20407;-75
2022/11/22 07:23:44;;;;;;;19.73;10.35;;;5.10;99.90;;;;;;5004827;28;20804;-76
2022/11/22 07:26:11;;;;;;;22.30;10.60;;;5.20;99.90;;;;;;4988602;28;20811;-76
2022/11/22 07:28:37;;;;;;;18.20;10.50;;;5.10;99.90;;;;;;5006014;28;20491;-77
2022/11/22 07:31:06;;;;;;;22.60;10.63;;;5.40;99.90;;;;;;5005468;28;21035;-75
2022/11/22 07:33:31;;;;;;;19.67;10.50;;;5.10;99.90;;;;;;5005534;28;20408;-77
2022/11/22 07:36:11;;;;;;;22.37;9.97;;;5.40;99.90;;;;;;5005773;28;20413;-76
2022/11/22 07:38:37;;;;;;;22.73;8.88;;;5.10;99.90;;;;;;5005796;28;20458;-75
2022/11/22 07:41:04;;;;;;;25.20;9.88;;;5.30;99.90;;;;;;4988110;28;20397;-75
2022/11/22 07:43:29;;;;;;;32.05;10.43;;;5.10;99.90;;;;;;5005405;28;20505;-75
2022/11/22 07:45:59;;;;;;;16.80;8.38;;;5.20;99.90;;;;;;5004974;28;20500;-76
2022/11/22 07:48:25;;;;;;;17.98;8.85;;;5.30;99.90;;;;;;4981538;28;20517;-76
2022/11/22 07:50:50;;;;;;;19.40;7.88;;;5.10;99.90;;;;;;4985982;28;20509;-76
2022/11/22 07:53:16;;;;;;;17.87;8.57;;;4.80;99.90;;;;;;4969884;28;20753;-76
2022/11/22 07:55:41;;;;;;;16.23;7.20;;;5.20;99.90;;;;;;4986782;28;21008;-76
2022/11/22 07:58:07;;;;;;;16.73;7.27;;;5.20;99.90;;;;;;4986753;28;20770;-75
2022/11/22 08:00:33;;;;;;;19.73;7.53;;;5.00;99.90;;;;;;4985280;28;20414;-76
2022/11/22 08:02:59;;;;;;;19.55;7.68;;;5.30;99.90;;;;;;4968611;28;20765;-76
2022/11/22 08:05:24;;;;;;;13.95;6.57;;;5.00;99.90;;;;;;4985802;28;20526;-76
2022/11/22 08:07:51;;;;;;;19.43;6.40;;;5.10;99.90;;;;;;4986686;28;20437;-75
2022/11/22 08:10:17;;;;;;;17.60;5.80;;;4.90;99.90;;;;;;4986876;28;20410;-76
2022/11/22 08:12:43;;;;;;;15.47;5.87;;;5.10;99.90;;;;;;4986923;28;20832;-76
2022/11/22 08:15:10;;;;;;;19.92;7.45;;;4.80;99.90;;;;;;4984831;28;20502;-75
2022/11/22 08:17:37;;;;;;;14.52;5.43;;;4.80;99.90;;;;;;4985754;28;20751;-75
2022/11/22 08:20:03;;;;;;;14.25;4.78;;;4.90;99.90;;;;;;4986630;28;20422;-75
2022/11/22 08:22:29;;;;;;;18.45;5.63;;;5.10;99.90;;;;;;4985955;28;20410;-76
2022/11/22 08:24:55;;;;;;;15.38;5.60;;;5.20;99.90;;;;;;4986198;28;20441;-76
2022/11/22 08:27:20;;;;;;;16.25;5.53;;;5.00;99.90;;;;;;4986103;28;21136;-77
2022/11/22 08:29:46;;;;;;;12.73;5.25;;;5.20;99.90;;;;;;4986519;28;20414;-76
2022/11/22 08:32:12;;;;;;;21.07;5.10;;;5.00;99.90;;;;;;4985242;28;20765;-75
2022/11/22 08:34:37;;;;;;;17.23;6.07;;;5.10;99.90;;;;;;4985949;28;20929;-76
2022/11/22 08:37:03;;;;;;;10.43;4.10;;;5.20;99.90;;;;;;4989338;28;20409;-76
2022/11/22 08:39:29;;;;;;;21.10;4.83;;;5.30;99.90;;;;;;4989450;28;20584;-76
2022/11/22 08:41:55;;;;;;;19.27;5.30;;;5.10;99.90;;;;;;4989485;28;20414;-77
2022/11/22 08:44:21;;;;;;;17.70;5.50;;;5.20;99.90;;;;;;4989474;28;20438;-76
2022/11/22 08:46:46;;;;;;;15.97;4.83;;;5.30;99.90;;;;;;4988641;28;20406;-76
2022/11/22 08:49:12;;;;;;;15.33;5.10;;;5.30;99.90;;;;;;5004025;28;20413;-75
2022/11/22 08:51:43;;;;;;;18.90;5.70;;;5.20;99.90;;;;;;5008924;28;20423;-76
2022/11/22 08:54:10;;;;;;;13.10;4.22;;;5.20;99.90;;;;;;5008484;28;20409;-76
2022/11/22 08:56:36;;;;;;;19.40;5.85;;;5.40;99.90;;;;;;5008309;28;20413;-75
2022/11/22 08:59:02;;;;;;;14.80;4.93;;;5.30;99.90;;;;;;5008716;28;20403;-76
2022/11/22 09:01:27;;;;;;;14.10;3.57;;;5.30;99.90;;;;;;5007632;28;20923;-76
2022/11/22 09:03:53;;;;;;;15.37;3.87;;;5.30;99.90;;;;;;4990734;28;20954;-76
2022/11/22 09:06:19;;;;;;;14.70;4.10;;;5.30;99.90;;;;;;5007721;28;20409;-75
2022/11/22 09:08:46;;;;;;;15.82;4.70;;;5.20;99.90;;;;;;5007817;28;20477;-76
2022/11/22 09:11:14;;;;;;;14.00;3.20;;;5.40;99.90;;;;;;5008251;28;20891;-76
2022/11/22 09:13:40;;;;;;;14.20;4.10;;;5.20;99.90;;;;;;5007938;28;20409;-76
2022/11/22 09:16:09;;;;;;;13.35;3.75;;;5.30;99.90;;;;;;5007336;28;20413;-75
2022/11/22 09:18:35;;;;;;;14.02;4.32;;;5.30;99.90;;;;;;4995340;28;20427;-76
2022/11/22 09:21:04;;;;;;;12.70;5.13;;;5.30;99.90;;;;;;4988634;28;20411;-76
2022/11/22 09:23:30;;;;;;;12.60;4.32;;;5.40;99.90;;;;;;4988133;28;20422;-76
2022/11/22 09:25:57;;;;;;;11.50;3.78;;;5.30;99.90;;;;;;4988362;28;20505;-77
2022/11/22 09:28:23;;;;;;;11.57;4.15;;;5.50;99.90;;;;;;4987989;28;20405;-75
2022/11/22 09:30:49;;;;;;;11.93;3.80;;;5.30;99.90;;;;;;4987392;28;20415;-76
2022/11/22 09:33:14;;;;;;;13.93;4.27;;;5.40;99.90;;;;;;4987629;28;20419;-75
2022/11/22 09:35:40;;;;;;;9.93;4.20;;;5.40;99.90;;;;;;4988340;28;20407;-75
2022/11/22 09:38:07;;;;;;;18.63;4.33;;;5.30;99.90;;;;;;4988267;28;20407;-76
2022/11/22 09:40:34;;;;;;;12.23;3.92;;;5.40;99.90;;;;;;4986495;28;21164;-75
2022/11/22 09:43:18;;;;;;;11.55;3.67;;;5.40;99.90;;;;;;4970472;28;20423;-77
2022/11/22 09:46:13;;;;;;;14.38;3.90;;;5.40;99.90;;;;;;4987316;28;20410;-76
2022/11/22 09:48:51;;;;;;;11.65;3.58;;;5.40;99.90;;;;;;4970804;28;20521;-75
2022/11/22 09:51:22;;;;;;;14.63;4.10;;;5.50;99.90;;;;;;4970747;28;20893;-74
2022/11/22 09:53:56;;;;;;;12.32;3.40;;;5.50;99.90;;;;;;4987508;28;20417;-79
2022/11/22 09:56:25;;;;;;;12.73;3.75;;;5.50;99.90;;;;;;4954012;28;20415;-76
2022/11/22 09:59:08;;;;;;;12.18;3.58;;;5.50;99.90;;;;;;4986719;28;20457;-75
2022/11/22 10:01:54;;;;;;;14.07;4.28;;;5.50;99.90;;;;;;4986604;28;20397;-77
2022/11/22 10:04:41;;;;;;;13.18;4.18;;;5.50;99.90;;;;;;4987226;28;20786;-76
2022/11/22 10:07:19;;;;;;;14.35;4.07;;;5.70;99.90;;;;;;4987626;28;21323;-76
2022/11/22 10:10:02;;;;;;;15.82;4.47;;;5.80;99.90;;;;;;4987779;28;20414;-75
2022/11/22 10:12:41;;;;;;;10.47;2.90;;;5.70;99.90;;;;;;4987007;28;20580;-76
2022/11/22 10:15:35;;;;;;;11.18;4.25;;;6.00;99.90;;;;;;4986499;28;20936;-75
2022/11/22 10:18:17;;;;;;;10.65;3.17;;;5.90;99.90;;;;;;4948962;28;20513;-76
2022/11/22 10:20:43;;;;;;;12.23;4.60;;;6.10;99.90;;;;;;4987995;28;20402;-75
2022/11/22 10:23:27;;;;;;;13.32;3.40;;;6.00;99.90;;;;;;4987075;28;20426;-75
2022/11/22 10:25:58;;;;;;;13.35;3.42;;;6.00;99.90;;;;;;4986059;28;20399;-77
2022/11/22 10:28:35;;;;;;;10.55;3.28;;;6.10;99.90;;;;;;4987120;28;20402;-76
2022/11/22 10:31:17;;;;;;;11.20;3.50;;;6.10;99.90;;;;;;4986094;28;20421;-76
2022/11/22 10:34:17;;;;;;;8.10;3.30;;;6.10;99.90;;;;;;4986322;28;20411;-76
2022/11/22 10:37:01;;;;;;;10.73;2.47;;;6.10;99.90;;;;;;4955978;28;20465;-76
2022/11/22 10:39:53;;;;;;;8.23;2.70;;;6.10;99.90;;;;;;4987853;28;20449;-75
2022/11/22 10:42:40;;;;;;;8.52;2.60;;;6.10;99.90;;;;;;4987637;28;20960;-75
2022/11/22 10:45:38;;;;;;;11.05;2.92;;;6.10;99.90;;;;;;4986557;28;20456;-75
2022/11/22 10:48:41;;;;;;;10.18;2.72;;;6.10;99.90;;;;;;4984605;28;20430;-76
2022/11/22 10:51:10;;;;;;;12.35;3.47;;;6.10;99.90;;;;;;4987044;28;20842;-75
2022/11/22 10:54:17;;;;;;;10.70;3.50;;;6.20;99.90;;;;;;4986691;28;20481;-76
2022/11/22 10:56:52;;;;;;;7.88;2.28;;;6.10;99.90;;;;;;4927336;29;20514;-76
2022/11/22 10:59:35;;;;;;;10.80;2.95;;;6.10;99.90;;;;;;4977339;28;20450;-76
2022/11/22 11:02:38;;;;;;;10.57;3.30;;;6.20;99.90;;;;;;4986233;28;20490;-74
2022/11/22 11:05:11;;;;;;;9.63;2.45;;;6.20;99.90;;;;;;4986592;28;20470;-76
2022/11/22 11:07:42;;;;;;;8.10;2.38;;;6.10;99.90;;;;;;4986239;28;20403;-76
2022/11/22 11:10:17;;;;;;;9.05;2.47;;;6.10;99.90;;;;;;4986958;28;20421;-76
2022/11/22 11:12:49;;;;;;;8.23;2.70;;;6.20;99.90;;;;;;4986045;28;20504;-75
2022/11/22 11:15:34;;;;;;;10.15;2.95;;;6.30;99.90;;;;;;4984525;28;20418;-77
2022/11/22 11:18:03;;;;;;;7.13;2.50;;;6.30;99.90;;;;;;4996855;28;20417;-76
2022/11/22 11:20:35;;;;;;;8.00;2.65;;;6.40;99.90;;;;;;5005616;28;20405;-75
2022/11/22 11:23:00;;;;;;;7.87;2.30;;;6.50;99.90;;;;;;5005498;28;20488;-75
2022/11/22 11:25:29;;;;;;;14.93;4.27;;;6.50;99.90;;;;;;5005570;28;20492;-76
2022/11/22 11:28:05;;;;;;;8.77;2.30;;;6.70;99.90;;;;;;5006071;28;20838;-75
2022/11/22 11:30:39;;;;;;;7.47;2.17;;;6.80;99.90;;;;;;5004683;28;20787;-76
2022/11/22 11:33:27;;;;;;;8.32;1.88;;;7.00;99.90;;;;;;5005806;28;20451;-76
2022/11/22 11:36:03;;;;;;;8.10;2.67;;;7.20;99.90;;;;;;5005452;28;20436;-75
2022/11/22 11:38:41;;;;;;;7.65;1.80;;;7.10;99.90;;;;;;4987785;28;20427;-75
2022/11/22 11:41:29;;;;;;;5.80;1.75;;;7.20;99.90;;;;;;5005473;28;20408;-75
2022/11/22 11:43:57;;;;;;;7.68;2.28;;;7.10;99.90;;;;;;4972208;28;20447;-76
2022/11/22 11:46:27;;;;;;;6.35;2.20;;;7.20;99.90;;;;;;5003025;28;20826;-76
2022/11/22 11:48:55;;;;;;;5.07;1.73;;;7.10;99.90;;;;;;5005180;28;20409;-76
2022/11/22 11:51:34;;;;;;;7.05;2.30;;;7.10;99.90;;;;;;5003969;28;20412;-76
2022/11/22 11:54:17;;;;;;;8.60;2.47;;;7.10;99.90;;;;;;5005356;28;20404;-75
2022/11/22 11:57:02;;;;;;;8.32;2.45;;;7.20;99.90;;;;;;5006097;28;20420;-77
2022/11/22 11:59:41;;;;;;;11.88;2.67;;;7.20;99.90;;;;;;4987702;28;20412;-77
2022/11/22 12:02:13;;;;;;;8.13;2.22;;;7.20;99.90;;;;;;5006249;28;20752;-77
2022/11/22 12:05:04;;;;;;;6.28;2.08;;;7.40;99.90;;;;;;5004929;28;20795;-78
2022/11/22 12:07:33;;;;;;;7.00;2.15;;;7.40;99.90;;;;;;5005622;28;20396;-76
2022/11/22 12:09:59;;;;;;;5.80;1.75;;;7.20;99.90;;;;;;5008520;28;20409;-78
2022/11/22 12:12:47;;;;;;;6.43;1.73;;;7.30;99.90;;;;;;4992009;28;20799;-75
2022/11/22 12:15:39;;;;;;;7.45;2.20;;;7.20;99.90;;;;;;4991282;28;20794;-77
2022/11/22 12:18:31;;;;;;;9.07;2.10;;;7.10;99.90;;;;;;4979471;28;20494;-75
2022/11/22 12:21:35;;;;;;;7.32;2.35;;;7.20;99.90;;;;;;4988467;28;20666;-74
2022/11/22 12:24:11;;;;;;;6.20;2.13;;;7.20;99.90;;;;;;4989961;28;20464;-76
2022/11/22 12:26:37;;;;;;;5.72;2.30;;;7.20;99.90;;;;;;4989330;28;21134;-77
2022/11/22 12:29:03;;;;;;;4.83;1.63;;;7.20;99.90;;;;;;4990387;28;20410;-74
2022/11/22 12:31:52;;;;;;;6.70;2.35;;;7.10;99.90;;;;;;4988297;28;20411;-76
2022/11/22 12:34:52;;;;;;;7.13;1.98;;;7.20;99.90;;;;;;4989761;28;20924;-78
2022/11/22 12:37:40;;;;;;;9.27;2.05;;;7.00;99.90;;;;;;4989587;28;20881;-76
2022/11/22 12:40:23;;;;;;;7.63;2.30;;;7.10;99.90;;;;;;4989910;28;20502;-78
2022/11/22 12:42:54;;;;;;;8.50;2.15;;;7.10;99.90;;;;;;4990745;28;20417;-77
2022/11/22 12:45:31;;;;;;;6.00;1.92;;;7.10;99.90;;;;;;4989412;28;20430;-77
2022/11/22 12:48:03;;;;;;;7.90;2.47;;;7.10;99.90;;;;;;4991353;28;20415;-77
2022/11/22 12:50:37;;;;;;;10.07;2.30;;;7.10;99.90;;;;;;4972627;28;20430;-76
2022/11/22 12:53:29;;;;;;;5.57;1.50;;;7.10;99.90;;;;;;4989686;28;20493;-75
2022/11/22 12:56:21;;;;;;;9.82;2.60;;;7.10;99.90;;;;;;4989626;28;20560;-76
2022/11/22 12:59:10;;;;;;;7.90;2.08;;;7.10;99.90;;;;;;4990376;28;20442;-75
2022/11/22 13:01:36;;;;;;;8.32;3.05;;;7.10;99.90;;;;;;4992250;28;20423;-75
2022/11/22 13:04:10;;;;;;;7.33;2.00;;;7.00;99.90;;;;;;5009028;28;20432;-76
2022/11/22 13:06:51;;;;;;;7.00;2.03;;;7.10;99.90;;;;;;4991371;28;20417;-77
2022/11/22 13:09:28;;;;;;;7.47;2.00;;;7.00;99.90;;;;;;5009516;28;20915;-75
2022/11/22 13:12:17;;;;;;;11.13;2.27;;;7.10;99.90;;;;;;5010157;28;20455;-77